ETHS

Fassberg Airport

Germany
METAR ETHS 172020Z 08003KT 9999 BKN036 00/M03 Q1025 BLU
Observed Flight Rules
Feb-17 @ 20:20 UTC (an hour ago) Visual Flight Rules
Wind Visibility Clouds
80° at 3 knots 10,000+ meters
  • Broken at 3,600' AGL
Temperatures Readings
Current 0°C / 32°F
Dewpoint -3°C / 27°F
Humidity 80%
Altimeter 30.27" Hg
Pressure 1025 hPa
Elevation 88
METAR ETHS 172020Z 08003KT 9999 BKN036 00/M03 Q1025 BLU
Observed Flight Rules
Feb-17 @ 20:20 UTC
(an hour ago)
VFR
Wind Visibility
80° at 3 knots 10,000+ meters
Clouds
  • Broken at 3,600' AGL
Temperature Dewpoint
0°C / 32°F -3°C / 27°F
Humidity Altimeter Pressure
80% 30.27" Hg 1025 hPa